Time;durP1;ratioP1;P1;durP2;ratioP2;P2;SDS_P1;SDS_P2;PMS_P1;PMS_P2;Temp;Humidity;BMP_temperature;BMP_pressure;BME280_temperature;BME280_humidity;BME280_pressure;Samples;Min_cycle;Max_cycle;Signal;HPM_P1;HPM_P2
2022/04/24 00:00:18;;;;;;;4.53;4.13;;;12.20;94.30;;;;;;4992677;28;20073;-69
2022/04/24 00:02:44;;;;;;;5.63;4.75;;;12.20;94.10;;;;;;4993303;28;20491;-69
2022/04/24 00:05:10;;;;;;;5.15;4.57;;;12.00;84.40;;;;;;4988327;28;20046;-69
2022/04/24 00:07:36;;;;;;;6.20;5.60;;;12.10;84.30;;;;;;4994079;28;20036;-69
2022/04/24 00:10:02;;;;;;;5.53;4.50;;;12.20;94.00;;;;;;4993695;28;20466;-69
2022/04/24 00:12:28;;;;;;;5.95;5.28;;;12.00;84.40;;;;;;4993162;28;20387;-69
2022/04/24 00:14:53;;;;;;;5.82;5.18;;;12.00;94.60;;;;;;4992709;28;20098;-70
2022/04/24 00:17:20;;;;;;;7.45;5.35;;;11.70;94.40;;;;;;4993230;28;20027;-70
2022/04/24 00:19:47;;;;;;;7.00;6.07;;;11.70;94.70;;;;;;4976468;28;20468;-69
2022/04/24 00:22:13;;;;;;;7.43;5.40;;;11.60;94.80;;;;;;4973476;28;20047;-69
2022/04/24 00:24:38;;;;;;;5.97;5.30;;;11.60;94.70;;;;;;4973488;28;20034;-70
2022/04/24 00:27:04;;;;;;;4.78;4.22;;;11.40;94.80;;;;;;4973231;28;20027;-69
2022/04/24 00:29:29;;;;;;;6.43;5.85;;;12.20;86.90;;;;;;4972944;28;20428;-69
2022/04/24 00:31:55;;;;;;;5.50;4.78;;;11.50;95.00;;;;;;4973279;28;20038;-69
2022/04/24 00:34:21;;;;;;;5.53;5.03;;;11.30;95.30;;;;;;4986603;28;20359;-69
2022/04/24 00:36:49;;;;;;;7.90;7.10;;;11.40;95.60;;;;;;4992719;28;20471;-69
2022/04/24 00:39:15;;;;;;;5.80;5.28;;;11.30;95.50;;;;;;4992396;28;20041;-69
2022/04/24 00:41:48;;;;;;;6.68;6.07;;;11.20;95.50;;;;;;4991267;28;20125;-69
2022/04/24 00:44:17;;;;;;;11.13;7.05;;;11.20;95.80;;;;;;4992119;28;20041;-69
2022/04/24 00:46:55;;;;;;;5.55;5.05;;;11.10;95.80;;;;;;4992441;28;20109;-69
2022/04/24 00:49:21;;;;;;;7.73;6.87;;;10.70;95.70;;;;;;4978446;28;20370;-69
2022/04/24 00:51:47;;;;;;;6.10;5.50;;;11.00;95.70;;;;;;4972904;28;20031;-70
2022/04/24 00:54:12;;;;;;;7.95;6.03;;;11.20;96.00;;;;;;4972925;28;20102;-69
2022/04/24 00:56:40;;;;;;;9.17;7.90;;;11.50;96.20;;;;;;4972679;28;20106;-69
2022/04/24 00:59:07;;;;;;;7.22;6.63;;;11.10;88.20;;;;;;4972349;28;20031;-69
2022/04/24 01:01:33;;;;;;;7.55;6.18;;;11.10;96.00;;;;;;4972760;28;20089;-69
2022/04/24 01:04:01;;;;;;;8.45;6.57;;;11.10;96.10;;;;;;4972765;28;20118;-69
2022/04/24 01:06:28;;;;;;;9.10;8.03;;;10.90;96.30;;;;;;4987842;28;20019;-70
2022/04/24 01:08:54;;;;;;;7.90;7.18;;;11.00;96.40;;;;;;4992406;28;20034;-69
2022/04/24 01:11:19;;;;;;;8.20;7.40;;;11.10;96.50;;;;;;4992006;28;20018;-69
2022/04/24 01:13:45;;;;;;;7.97;7.18;;;11.00;96.50;;;;;;4991655;28;20026;-69
2022/04/24 01:16:11;;;;;;;12.20;6.73;;;10.80;96.70;;;;;;4991872;28;20033;-69
2022/04/24 01:18:37;;;;;;;8.55;7.68;;;;;;;;;;4984860;28;20439;-69
2022/04/24 01:21:09;;;;;;;8.90;6.70;;;10.90;97.00;;;;;;4972267;28;20055;-69
2022/04/24 01:23:36;;;;;;;9.45;8.55;;;10.70;97.30;;;;;;4972245;28;20510;-69
2022/04/24 01:26:01;;;;;;;7.70;7.00;;;10.40;97.00;;;;;;4972340;28;20023;-69
2022/04/24 01:28:27;;;;;;;9.13;8.23;;;10.70;97.40;;;;;;4972009;28;20368;-69
2022/04/24 01:30:52;;;;;;;9.10;8.23;;;10.60;97.50;;;;;;4972342;28;20106;-69
2022/04/24 01:33:18;;;;;;;9.60;8.60;;;10.70;97.80;;;;;;4976355;28;20038;-69
2022/04/24 01:35:43;;;;;;;8.63;7.82;;;10.80;97.80;;;;;;4991502;28;20058;-69
2022/04/24 01:38:09;;;;;;;9.00;8.20;;;10.60;97.80;;;;;;4990737;28;20136;-69
2022/04/24 01:40:34;;;;;;;9.87;8.50;;;10.70;97.80;;;;;;4991406;28;20026;-69
2022/04/24 01:43:00;;;;;;;8.20;7.40;;;10.60;97.80;;;;;;4991121;28;20023;-69
2022/04/24 01:45:25;;;;;;;8.80;7.82;;;10.90;98.10;;;;;;4991357;28;20062;-69
2022/04/24 01:47:50;;;;;;;8.93;8.10;;;10.60;98.10;;;;;;4989813;28;20419;-69
2022/04/24 01:50:16;;;;;;;9.63;8.75;;;10.60;98.40;;;;;;4971869;28;20026;-69
2022/04/24 01:52:42;;;;;;;8.53;7.67;;;10.60;98.20;;;;;;4971721;28;20070;-69
2022/04/24 01:55:07;;;;;;;9.63;8.27;;;10.80;98.30;;;;;;4971773;28;20126;-69
2022/04/24 01:57:32;;;;;;;10.10;9.10;;;10.50;98.50;;;;;;4971299;28;20023;-69
2022/04/24 01:59:58;;;;;;;9.50;8.45;;;10.60;98.50;;;;;;4971710;28;20042;-69
2022/04/24 02:02:23;;;;;;;9.30;8.27;;;10.50;98.80;;;;;;4972075;28;20105;-69
2022/04/24 02:04:49;;;;;;;10.23;9.17;;;10.40;98.90;;;;;;4972963;28;20022;-69
2022/04/24 02:07:14;;;;;;;10.70;9.60;;;10.10;99.10;;;;;;4990829;28;20046;-69
2022/04/24 02:09:40;;;;;;;10.30;9.27;;;10.30;99.10;;;;;;4990842;28;20041;-69
2022/04/24 02:12:06;;;;;;;10.07;8.63;;;10.30;99.50;;;;;;4990487;28;20039;-69
2022/04/24 02:14:32;;;;;;;10.77;8.50;;;10.30;99.00;;;;;;4990705;28;20026;-69
2022/04/24 02:16:58;;;;;;;9.60;8.23;;;10.20;99.60;;;;;;4990819;28;20023;-69
2022/04/24 02:19:24;;;;;;;10.70;9.63;;;10.10;99.80;;;;;;4977062;28;20101;-69
2022/04/24 02:21:49;;;;;;;10.70;9.60;;;10.20;99.90;;;;;;4971018;28;20507;-69
2022/04/24 02:24:15;;;;;;;11.50;9.67;;;10.10;99.90;;;;;;4971442;28;20034;-69
2022/04/24 02:26:41;;;;;;;10.40;9.30;;;;;;;;;;4971064;28;20042;-69
2022/04/24 02:29:06;;;;;;;9.37;8.37;;;10.10;99.90;;;;;;4971336;28;20037;-69
2022/04/24 02:31:32;;;;;;;12.50;9.67;;;10.00;99.90;;;;;;4971250;28;20031;-69
2022/04/24 02:33:57;;;;;;;11.10;9.87;;;10.10;99.90;;;;;;4981613;28;20419;-70
2022/04/24 02:36:23;;;;;;;11.93;9.60;;;10.00;99.90;;;;;;4992154;28;20045;-69
2022/04/24 02:38:48;;;;;;;10.00;9.00;;;10.10;99.90;;;;;;4990506;28;20051;-68
2022/04/24 02:41:14;;;;;;;11.70;9.40;;;9.90;99.90;;;;;;4990203;28;20045;-69
2022/04/24 02:43:39;;;;;;;11.23;10.03;;;9.90;99.90;;;;;;4990171;28;20041;-69
2022/04/24 02:46:05;;;;;;;10.93;9.83;;;9.80;99.90;;;;;;4992301;28;20426;-68
2022/04/24 02:48:30;;;;;;;10.33;9.20;;;;;;;;;;4984656;28;20046;-69
2022/04/24 02:50:57;;;;;;;10.87;9.70;;;9.90;95.30;;;;;;4974376;28;20031;-69
2022/04/24 02:53:23;;;;;;;10.43;9.10;;;9.60;99.90;;;;;;4975266;28;20022;-68
2022/04/24 02:55:49;;;;;;;13.37;10.07;;;;;;;;;;4974705;28;20042;-69
2022/04/24 02:58:14;;;;;;;12.10;10.13;;;9.80;99.90;;;;;;4974927;28;20758;-69
2022/04/24 03:00:43;;;;;;;9.47;8.37;;;;;;;;;;4974829;28;20097;-69
2022/04/24 03:03:09;;;;;;;10.40;9.30;;;9.80;99.90;;;;;;4974733;28;20035;-69
2022/04/24 03:05:35;;;;;;;12.33;9.57;;;9.70;95.40;;;;;;4978945;28;20038;-68
2022/04/24 03:08:01;;;;;;;10.57;9.23;;;9.70;99.90;;;;;;4992535;28;20034;-69
2022/04/24 03:10:28;;;;;;;12.43;9.07;;;9.70;99.90;;;;;;4994250;28;20386;-69
2022/04/24 03:12:54;;;;;;;10.23;8.90;;;9.60;99.90;;;;;;4994309;28;20178;-69
2022/04/24 03:15:19;;;;;;;11.70;9.53;;;9.60;99.90;;;;;;4994104;28;20109;-69
2022/04/24 03:17:45;;;;;;;11.80;8.53;;;;;;;;;;4993801;28;20109;-68
2022/04/24 03:20:12;;;;;;;9.40;8.37;;;9.60;99.90;;;;;;4993557;28;20026;-68
2022/04/24 03:22:39;;;;;;;9.97;8.97;;;;;;;;;;4993742;28;20380;-69
2022/04/24 03:25:07;;;;;;;11.03;9.23;;;9.70;99.90;;;;;;4994175;28;20028;-69
2022/04/24 03:27:33;;;;;;;9.57;7.93;;;;;;;;;;4993804;28;20036;-69
2022/04/24 03:29:58;;;;;;;8.77;7.87;;;9.50;99.90;;;;;;4993972;28;20038;-69
2022/04/24 03:32:25;;;;;;;10.17;8.40;;;;;;;;;;4993928;28;20034;-69
2022/04/24 03:34:50;;;;;;;11.73;8.23;;;9.40;99.90;;;;;;4977127;28;20503;-68
2022/04/24 03:37:16;;;;;;;11.73;9.43;;;9.50;98.00;;;;;;4973778;28;20407;-69
2022/04/24 03:39:42;;;;;;;9.17;8.27;;;9.40;99.90;;;;;;4974241;28;20134;-68
2022/04/24 03:42:07;;;;;;;10.67;8.90;;;9.40;99.90;;;;;;4974508;28;20023;-69
2022/04/24 03:44:33;;;;;;;9.03;8.13;;;9.40;99.90;;;;;;4974153;28;20042;-69
2022/04/24 03:47:00;;;;;;;9.53;7.73;;;9.40;99.90;;;;;;4974220;28;20061;-69
2022/04/24 03:49:26;;;;;;;7.97;7.17;;;9.30;99.90;;;;;;4987174;28;20038;-68
2022/04/24 03:51:52;;;;;;;10.37;8.23;;;9.40;99.90;;;;;;4993309;28;20356;-69
2022/04/24 03:54:18;;;;;;;9.03;7.80;;;9.30;99.90;;;;;;4993527;28;20046;-69
2022/04/24 03:56:43;;;;;;;11.93;8.17;;;9.20;99.90;;;;;;4993567;28;20092;-69
2022/04/24 03:59:09;;;;;;;8.23;7.17;;;9.20;99.90;;;;;;4993378;28;20034;-69
2022/04/24 04:01:35;;;;;;;9.37;8.43;;;;;;;;;;4991619;28;20121;-68
2022/04/24 04:04:01;;;;;;;11.10;8.17;;;9.20;99.90;;;;;;4993233;28;20113;-69
2022/04/24 04:06:27;;;;;;;10.77;9.00;;;9.20;99.70;;;;;;4981403;28;20118;-68
2022/04/24 04:08:52;;;;;;;9.33;8.37;;;9.10;99.90;;;;;;4973901;28;20106;-68
2022/04/24 04:11:18;;;;;;;9.90;7.63;;;9.10;99.90;;;;;;4973702;28;20215;-69
2022/04/24 04:13:43;;;;;;;8.43;6.30;;;9.10;99.90;;;;;;4973718;28;20091;-69
2022/04/24 04:16:09;;;;;;;9.87;7.97;;;9.00;99.90;;;;;;4973627;28;20102;-70
2022/04/24 04:18:34;;;;;;;7.73;6.73;;;;;;;;;;4979139;28;20038;-69
2022/04/24 04:21:00;;;;;;;9.93;7.93;;;9.00;99.90;;;;;;4992416;28;20557;-68
2022/04/24 04:23:26;;;;;;;7.83;7.03;;;;;;;;;;4993162;28;20026;-69
2022/04/24 04:25:51;;;;;;;8.17;6.63;;;9.00;99.90;;;;;;4992811;28;20030;-69
2022/04/24 04:28:17;;;;;;;7.87;7.10;;;9.10;99.90;;;;;;4992769;28;20049;-69
2022/04/24 04:30:43;;;;;;;8.00;6.83;;;;;;;;;;4991445;28;20077;-69
2022/04/24 04:33:09;;;;;;;9.13;8.23;;;8.90;99.90;;;;;;4990227;28;20379;-68
2022/04/24 04:35:35;;;;;;;8.33;6.87;;;8.40;99.90;;;;;;4991415;28;20038;-69
2022/04/24 04:38:01;;;;;;;11.20;8.13;;;8.80;99.90;;;;;;4992622;28;20536;-69
2022/04/24 04:40:27;;;;;;;7.77;6.93;;;8.90;99.90;;;;;;4992721;28;20117;-69
2022/04/24 04:42:52;;;;;;;7.83;7.03;;;8.80;99.90;;;;;;4991447;28;20080;-69
2022/04/24 04:45:18;;;;;;;8.30;5.90;;;;;;;;;;4992581;28;20106;-69
2022/04/24 04:47:44;;;;;;;7.37;6.13;;;8.70;99.70;;;;;;4992371;28;20076;-69
2022/04/24 04:50:10;;;;;;;9.33;7.90;;;9.20;99.90;;;;;;4972827;28;20034;-69
2022/04/24 04:52:36;;;;;;;7.03;6.10;;;8.80;99.90;;;;;;4972974;28;20030;-69
2022/04/24 04:55:03;;;;;;;9.50;7.13;;;8.90;99.90;;;;;;4972944;28;20027;-68
2022/04/24 04:57:29;;;;;;;8.97;7.20;;;8.80;97.20;;;;;;4972816;28;20033;-68
2022/04/24 04:59:55;;;;;;;9.37;7.00;;;8.80;99.90;;;;;;4973136;28;20059;-69
2022/04/24 05:02:21;;;;;;;6.97;6.23;;;;;;;;;;4974016;28;20055;-69
2022/04/24 05:04:46;;;;;;;8.57;7.70;;;8.90;99.90;;;;;;4974419;28;20120;-69
2022/04/24 05:07:12;;;;;;;9.00;7.03;;;8.90;99.90;;;;;;4972838;28;20480;-69
2022/04/24 05:09:38;;;;;;;7.20;6.50;;;8.90;99.90;;;;;;4972664;28;20041;-69
2022/04/24 05:12:04;;;;;;;8.67;7.20;;;;;;;;;;4973341;28;20476;-70
2022/04/24 05:14:31;;;;;;;8.90;6.77;;;8.90;99.90;;;;;;4993628;28;20026;-69
2022/04/24 05:16:56;;;;;;;7.70;6.40;;;8.80;98.20;;;;;;4993052;28;20053;-69
2022/04/24 05:19:23;;;;;;;9.27;6.70;;;8.80;99.90;;;;;;4991490;28;20399;-69
2022/04/24 05:21:48;;;;;;;10.37;8.17;;;8.90;99.90;;;;;;4990556;28;20042;-69
2022/04/24 05:24:14;;;;;;;10.20;7.17;;;8.90;99.90;;;;;;4990194;28;20413;-69
2022/04/24 05:26:40;;;;;;;7.37;6.60;;;8.90;99.90;;;;;;4987654;28;20023;-68
2022/04/24 05:29:06;;;;;;;9.67;7.03;;;8.90;99.90;;;;;;4972336;28;20065;-69
2022/04/24 05:31:32;;;;;;;8.63;6.40;;;9.00;99.90;;;;;;4971907;28;20392;-69
2022/04/24 05:33:57;;;;;;;7.37;6.27;;;9.00;99.90;;;;;;4971771;28;20057;-69
2022/04/24 05:36:23;;;;;;;8.17;6.93;;;;;;;;;;4970953;28;20468;-69
2022/04/24 05:38:48;;;;;;;8.00;6.47;;;9.10;99.90;;;;;;4971927;28;20038;-69
2022/04/24 05:41:14;;;;;;;7.90;7.07;;;9.10;99.90;;;;;;4990408;28;20039;-69
2022/04/24 05:43:39;;;;;;;9.60;7.17;;;9.10;99.90;;;;;;4991497;28;20387;-69
2022/04/24 05:46:05;;;;;;;6.27;5.50;;;9.20;99.90;;;;;;4991253;28;20031;-69
2022/04/24 05:48:31;;;;;;;7.83;6.80;;;;;;;;;;4990732;28;20152;-69
2022/04/24 05:50:57;;;;;;;7.93;6.27;;;9.20;99.90;;;;;;4991248;28;20653;-69
2022/04/24 05:53:23;;;;;;;8.17;7.33;;;8.90;99.40;;;;;;4991463;28;20068;-69
2022/04/24 05:55:48;;;;;;;8.23;6.93;;;8.90;99.90;;;;;;4991223;28;20053;-69
2022/04/24 05:58:14;;;;;;;6.50;5.90;;;9.60;99.90;;;;;;4991209;28;20046;-69
2022/04/24 06:00:39;;;;;;;6.07;5.27;;;9.50;99.90;;;;;;4975797;28;20054;-69
2022/04/24 06:03:05;;;;;;;7.83;6.57;;;9.60;99.90;;;;;;4970044;28;20058;-69
2022/04/24 06:05:31;;;;;;;8.37;7.07;;;;;;;;;;4971523;28;20097;-68
2022/04/24 06:07:57;;;;;;;7.23;6.03;;;;;;;;;;4971658;28;20037;-69
2022/04/24 06:10:22;;;;;;;6.23;5.57;;;9.60;99.90;;;;;;4971828;28;20077;-68
2022/04/24 06:12:55;;;;;;;8.10;5.90;;;9.70;99.90;;;;;;4971796;28;20034;-68
2022/04/24 06:15:24;;;;;;;7.80;6.70;;;9.70;99.90;;;;;;4971471;28;20113;-69
2022/04/24 06:17:51;;;;;;;6.70;6.00;;;8.40;95.30;;;;;;4970771;28;20086;-68
2022/04/24 06:20:19;;;;;;;8.50;6.10;;;9.80;99.90;;;;;;4987591;28;20046;-68
2022/04/24 06:22:46;;;;;;;7.50;6.27;;;9.90;99.90;;;;;;4989868;28;20031;-69
2022/04/24 06:25:21;;;;;;;8.47;6.50;;;10.00;98.00;;;;;;4986621;28;20015;-69
2022/04/24 06:27:48;;;;;;;7.50;6.20;;;10.20;99.90;;;;;;4987410;28;20213;-70
2022/04/24 06:30:15;;;;;;;6.93;6.00;;;10.00;95.30;;;;;;4990724;28;20033;-69
2022/04/24 06:32:42;;;;;;;7.60;6.13;;;10.10;99.90;;;;;;4987110;28;20459;-68
2022/04/24 06:35:09;;;;;;;7.23;6.33;;;10.60;99.90;;;;;;4988257;28;20049;-69
2022/04/24 06:37:39;;;;;;;8.00;6.57;;;10.20;99.90;;;;;;4989444;28;20097;-69
2022/04/24 06:40:10;;;;;;;6.97;6.03;;;10.30;99.90;;;;;;4989294;28;20041;-69
2022/04/24 06:42:46;;;;;;;10.77;6.90;;;10.40;99.90;;;;;;4988419;28;20093;-69
2022/04/24 06:45:12;;;;;;;6.43;5.80;;;;;;;;;;4990367;28;20130;-68
2022/04/24 06:47:38;;;;;;;8.33;6.20;;;10.50;98.40;;;;;;4988164;28;20114;-69
2022/04/24 06:50:03;;;;;;;6.40;5.47;;;10.70;99.90;;;;;;4990247;28;20035;-68
2022/04/24 06:52:29;;;;;;;9.63;6.47;;;10.70;99.90;;;;;;4990280;28;20038;-68
2022/04/24 06:54:54;;;;;;;7.17;6.33;;;10.80;99.90;;;;;;4989070;28;20076;-68
2022/04/24 06:57:20;;;;;;;10.00;6.50;;;10.70;99.90;;;;;;4990125;28;20058;-68
2022/04/24 06:59:45;;;;;;;8.10;6.83;;;10.90;99.90;;;;;;4990042;28;20118;-68
2022/04/24 07:02:11;;;;;;;7.63;6.83;;;10.80;99.90;;;;;;4984538;28;20037;-68
2022/04/24 07:04:37;;;;;;;7.30;6.00;;;10.90;99.90;;;;;;4990157;28;20208;-69
2022/04/24 07:07:02;;;;;;;7.10;6.40;;;10.90;99.90;;;;;;4990197;28;20037;-69
2022/04/24 07:09:29;;;;;;;6.50;5.83;;;11.10;99.90;;;;;;4988657;28;20027;-68
2022/04/24 07:11:54;;;;;;;6.43;5.70;;;11.30;99.90;;;;;;4990500;28;20028;-69
2022/04/24 07:14:20;;;;;;;6.40;5.75;;;11.20;99.80;;;;;;4990221;28;20375;-68
2022/04/24 07:16:45;;;;;;;8.70;6.03;;;11.30;99.60;;;;;;4978509;28;20476;-70
2022/04/24 07:19:11;;;;;;;10.82;5.88;;;11.50;99.70;;;;;;4970782;28;20047;-70
2022/04/24 07:21:36;;;;;;;8.80;7.22;;;11.30;93.10;;;;;;4970558;28;20070;-70
2022/04/24 07:24:03;;;;;;;8.13;6.73;;;11.40;99.30;;;;;;4978149;28;20117;-70
2022/04/24 07:26:28;;;;;;;7.72;6.93;;;11.60;92.70;;;;;;4989973;28;20030;-70
2022/04/24 07:28:54;;;;;;;6.97;6.22;;;11.70;92.50;;;;;;4990478;28;20026;-70
2022/04/24 07:31:20;;;;;;;10.32;6.95;;;11.60;98.50;;;;;;4990603;28;20053;-69
2022/04/24 07:33:45;;;;;;;6.15;5.55;;;11.70;98.60;;;;;;4978958;28;20041;-70
2022/04/24 07:36:11;;;;;;;6.97;6.25;;;12.00;92.20;;;;;;4972610;28;20054;-70
2022/04/24 07:38:36;;;;;;;6.20;5.65;;;12.30;98.60;;;;;;4974003;28;20550;-70
2022/04/24 07:41:03;;;;;;;7.23;6.30;;;12.10;91.90;;;;;;4974552;28;20073;-70
2022/04/24 07:43:29;;;;;;;7.55;5.82;;;12.20;90.60;;;;;;4974195;28;20034;-70
2022/04/24 07:45:55;;;;;;;6.45;5.85;;;;;;;;;;4978756;28;20033;-70
2022/04/24 07:48:20;;;;;;;6.72;6.03;;;12.20;90.20;;;;;;4980918;28;20034;-70
2022/04/24 07:50:52;;;;;;;6.70;5.28;;;12.20;91.20;;;;;;4993601;28;20030;-70
2022/04/24 07:53:18;;;;;;;8.13;7.15;;;12.70;91.50;;;;;;4983581;28;20035;-70
2022/04/24 07:55:46;;;;;;;7.72;6.32;;;12.40;91.00;;;;;;4973991;28;20034;-70
2022/04/24 07:58:13;;;;;;;6.65;6.03;;;12.60;91.10;;;;;;4973458;28;20088;-70
2022/04/24 08:00:39;;;;;;;6.97;5.30;;;12.70;97.30;;;;;;4978944;28;20201;-70
2022/04/24 08:03:10;;;;;;;6.30;5.35;;;12.90;96.90;;;;;;4976233;28;20038;-70
2022/04/24 08:05:43;;;;;;;6.93;5.20;;;14.20;91.40;;;;;;4984703;28;20039;-70
2022/04/24 08:08:14;;;;;;;6.97;6.35;;;13.80;91.00;;;;;;4992127;28;20053;-70
2022/04/24 08:10:42;;;;;;;6.97;6.32;;;13.00;88.10;;;;;;4984556;28;20038;-70
2022/04/24 08:13:08;;;;;;;6.25;4.90;;;14.00;90.30;;;;;;4991984;28;20022;-70
2022/04/24 08:15:35;;;;;;;6.32;5.72;;;13.20;90.00;;;;;;4993114;28;20364;-70
2022/04/24 08:18:01;;;;;;;10.25;7.22;;;13.30;89.70;;;;;;4992822;28;20022;-70
2022/04/24 08:20:27;;;;;;;7.20;6.13;;;13.40;95.80;;;;;;4991339;28;20064;-70
2022/04/24 08:22:54;;;;;;;7.40;6.65;;;13.30;88.80;;;;;;4993064;28;20471;-70
2022/04/24 08:25:24;;;;;;;8.13;6.55;;;13.40;88.40;;;;;;5007882;28;20026;-70
2022/04/24 08:27:51;;;;;;;6.45;5.80;;;13.50;88.30;;;;;;4984156;28;20507;-70
2022/04/24 08:30:18;;;;;;;7.40;6.70;;;13.90;87.90;;;;;;4973470;28;20042;-70
2022/04/24 08:32:44;;;;;;;8.35;7.22;;;13.50;95.10;;;;;;4973076;28;20023;-70
2022/04/24 08:35:13;;;;;;;9.48;7.00;;;14.40;87.80;;;;;;4973425;28;20106;-70
2022/04/24 08:37:40;;;;;;;8.80;5.85;;;14.30;87.50;;;;;;4973244;28;20066;-72
2022/04/24 08:40:08;;;;;;;9.68;6.80;;;13.90;87.90;;;;;;4971910;28;20746;-70
2022/04/24 08:42:34;;;;;;;7.45;6.75;;;14.00;86.50;;;;;;4972712;28;20031;-70
2022/04/24 08:45:00;;;;;;;7.47;6.13;;;14.90;87.30;;;;;;4981413;28;20461;-70
2022/04/24 08:47:27;;;;;;;7.85;7.10;;;14.60;86.40;;;;;;4978922;28;20026;-70
2022/04/24 08:49:55;;;;;;;7.55;6.00;;;14.80;86.40;;;;;;4992698;28;20513;-70
2022/04/24 08:52:21;;;;;;;9.07;8.05;;;14.10;86.30;;;;;;4980971;28;20110;-70
2022/04/24 08:54:48;;;;;;;8.82;7.25;;;15.00;85.40;;;;;;4972936;28;20094;-70
2022/04/24 08:57:14;;;;;;;7.72;6.63;;;14.30;84.20;;;;;;4972513;28;20078;-70
2022/04/24 08:59:40;;;;;;;6.90;5.90;;;14.30;84.80;;;;;;4972759;28;20448;-70
2022/04/24 09:02:06;;;;;;;9.57;6.95;;;14.70;84.70;;;;;;4987763;28;20057;-70
2022/04/24 09:04:33;;;;;;;8.25;6.68;;;14.50;83.80;;;;;;4990702;28;20034;-70
2022/04/24 09:07:04;;;;;;;6.85;6.15;;;14.50;83.30;;;;;;4992090;28;20510;-70
2022/04/24 09:09:53;;;;;;;7.55;6.57;;;14.60;83.90;;;;;;4988839;28;20157;-70
2022/04/24 09:12:24;;;;;;;7.63;6.72;;;14.70;84.20;;;;;;4990596;28;20030;-70
2022/04/24 09:14:51;;;;;;;9.90;6.60;;;14.80;83.30;;;;;;4991897;28;20482;-70
2022/04/24 09:17:18;;;;;;;8.48;6.35;;;15.50;83.30;;;;;;4991907;28;20069;-70
2022/04/24 09:19:45;;;;;;;7.18;6.47;;;15.40;83.70;;;;;;4991753;28;20113;-70
2022/04/24 09:22:11;;;;;;;7.45;6.75;;;14.90;82.70;;;;;;4983470;28;20085;-70
2022/04/24 09:24:49;;;;;;;8.82;5.85;;;15.80;83.10;;;;;;4990739;28;20022;-70
2022/04/24 09:27:28;;;;;;;8.82;6.00;;;15.10;81.80;;;;;;4990266;28;20479;-70
2022/04/24 09:29:56;;;;;;;9.02;6.38;;;15.10;83.20;;;;;;4970808;28;20027;-70
2022/04/24 09:32:24;;;;;;;6.57;5.85;;;15.10;82.30;;;;;;4984500;28;20431;-70
2022/04/24 09:34:50;;;;;;;7.75;5.93;;;15.20;82.00;;;;;;4991724;28;20276;-69
2022/04/24 09:37:16;;;;;;;6.10;5.50;;;15.80;81.80;;;;;;4991283;28;20099;-69
2022/04/24 09:39:42;;;;;;;6.72;6.10;;;15.30;81.20;;;;;;4983769;28;20484;-69
2022/04/24 09:42:10;;;;;;;6.50;5.72;;;15.30;80.60;;;;;;4970824;28;20022;-69
2022/04/24 09:44:47;;;;;;;7.32;6.30;;;15.40;81.20;;;;;;4988866;28;20054;-69
2022/04/24 09:47:16;;;;;;;6.60;6.03;;;15.70;80.90;;;;;;4991402;28;20110;-69
2022/04/24 09:49:45;;;;;;;7.18;6.22;;;15.40;80.30;;;;;;4990995;28;20031;-69
2022/04/24 09:52:12;;;;;;;6.78;5.30;;;15.60;80.60;;;;;;4985022;28;20356;-70
2022/04/24 09:54:43;;;;;;;8.43;6.68;;;15.50;80.70;;;;;;4970355;28;20023;-70
2022/04/24 09:57:10;;;;;;;8.98;7.53;;;15.70;78.40;;;;;;4972144;28;20125;-70
2022/04/24 09:59:37;;;;;;;6.68;5.95;;;15.60;79.40;;;;;;4970809;28;20047;-70
2022/04/24 10:02:04;;;;;;;7.10;6.40;;;15.70;79.30;;;;;;4972296;28;20023;-69
2022/04/24 10:04:31;;;;;;;6.45;5.85;;;15.70;78.70;;;;;;4971501;28;20035;-69
2022/04/24 10:06:57;;;;;;;5.55;5.05;;;15.70;78.10;;;;;;4982834;28;20034;-69
2022/04/24 10:09:25;;;;;;;5.93;5.22;;;15.60;78.70;;;;;;4991039;28;20030;-70
2022/04/24 10:11:52;;;;;;;8.30;5.60;;;15.80;79.20;;;;;;4992123;28;20018;-70
2022/04/24 10:14:19;;;;;;;6.95;6.28;;;15.80;78.70;;;;;;4993506;28;20042;-69
2022/04/24 10:16:51;;;;;;;8.40;6.90;;;15.80;78.20;;;;;;4991466;28;20073;-70
2022/04/24 10:19:42;;;;;;;6.55;5.85;;;15.90;77.40;;;;;;4990877;28;20041;-71
2022/04/24 10:22:24;;;;;;;5.82;5.10;;;16.00;77.00;;;;;;4983967;28;20059;-70
2022/04/24 10:25:02;;;;;;;11.68;7.43;;;16.00;77.30;;;;;;4989070;28;20494;-69
2022/04/24 10:27:42;;;;;;;11.55;7.80;;;16.10;76.10;;;;;;4990031;28;20026;-69
2022/04/24 10:30:13;;;;;;;9.90;5.72;;;16.10;77.00;;;;;;4990557;28;20058;-69
2022/04/24 10:32:39;;;;;;;6.93;6.22;;;;;;;;;;4990391;28;20026;-69
2022/04/24 10:35:19;;;;;;;6.90;4.78;;;16.20;74.00;;;;;;4988101;28;20042;-69
2022/04/24 10:37:47;;;;;;;8.55;5.95;;;16.20;77.90;;;;;;4974427;28;20041;-69
2022/04/24 10:40:19;;;;;;;7.10;5.15;;;16.30;76.50;;;;;;4990522;28;20109;-69
2022/04/24 10:42:45;;;;;;;7.88;6.30;;;16.30;76.10;;;;;;4990119;28;20022;-69
2022/04/24 10:45:19;;;;;;;6.20;5.57;;;16.20;75.40;;;;;;4990440;28;20038;-69
2022/04/24 10:47:52;;;;;;;6.32;5.55;;;16.20;76.40;;;;;;4988839;28;20023;-69
2022/04/24 10:50:18;;;;;;;7.32;5.10;;;16.30;76.50;;;;;;4984410;28;20023;-70
2022/04/24 10:52:49;;;;;;;6.47;4.85;;;16.40;75.10;;;;;;4969025;28;20038;-69
2022/04/24 10:55:19;;;;;;;7.35;5.90;;;16.50;75.40;;;;;;4971093;28;20027;-69
2022/04/24 10:58:00;;;;;;;5.90;5.30;;;16.50;75.70;;;;;;4979082;28;20027;-70
2022/04/24 11:00:43;;;;;;;7.00;5.20;;;16.60;74.10;;;;;;4985325;28;20436;-70
2022/04/24 11:03:14;;;;;;;6.28;4.18;;;16.50;76.40;;;;;;4970839;28;20043;-70
2022/04/24 11:05:45;;;;;;;4.03;3.63;;;16.70;76.00;;;;;;4971017;28;20031;-69
2022/04/24 11:08:18;;;;;;;7.55;5.65;;;16.80;73.50;;;;;;4976213;28;20049;-70
2022/04/24 11:10:46;;;;;;;5.63;4.53;;;16.80;75.10;;;;;;4991448;28;20050;-70
2022/04/24 11:13:14;;;;;;;7.10;6.15;;;16.80;74.70;;;;;;4992585;28;20033;-70
2022/04/24 11:15:45;;;;;;;4.25;3.75;;;16.80;71.70;;;;;;4986654;28;20182;-69
2022/04/24 11:18:17;;;;;;;6.95;4.57;;;16.80;70.60;;;;;;4974707;28;20029;-69
2022/04/24 11:20:50;;;;;;;7.68;4.75;;;16.80;72.80;;;;;;4974331;28;20130;-70
2022/04/24 11:23:15;;;;;;;5.00;4.57;;;16.80;71.80;;;;;;4974131;28;20030;-70
2022/04/24 11:25:41;;;;;;;6.63;5.05;;;16.70;71.70;;;;;;4974377;28;20097;-70
2022/04/24 11:28:06;;;;;;;6.60;4.88;;;16.70;71.70;;;;;;4974456;28;20026;-70
2022/04/24 11:30:33;;;;;;;4.22;3.83;;;16.70;72.30;;;;;;4974656;28;20435;-69
2022/04/24 11:33:05;;;;;;;7.00;6.00;;;16.70;70.60;;;;;;4974378;28;20019;-69
2022/04/24 11:35:33;;;;;;;5.38;4.88;;;16.70;74.20;;;;;;4973902;28;20102;-69
2022/04/24 11:37:59;;;;;;;6.80;4.35;;;16.80;72.90;;;;;;4974363;28;20019;-69
2022/04/24 11:40:25;;;;;;;4.85;4.35;;;16.70;72.30;;;;;;4982142;28;20044;-70
2022/04/24 11:42:51;;;;;;;5.15;4.07;;;16.90;72.60;;;;;;4992484;28;20041;-69
2022/04/24 11:50:53;;;;;;;6.05;5.20;;;17.20;71.30;;;;;;4992504;28;20058;-70
2022/04/24 11:53:23;;;;;;;6.13;5.22;;;17.20;71.50;;;;;;4993635;28;20034;-70
2022/04/24 11:56:01;;;;;;;4.63;4.22;;;17.20;71.40;;;;;;4993456;28;20022;-70
2022/04/24 11:58:37;;;;;;;4.18;3.75;;;17.30;70.10;;;;;;4993573;28;20040;-70
2022/04/24 12:01:04;;;;;;;5.22;4.55;;;17.50;70.50;;;;;;4993276;28;20019;-70
2022/04/24 12:03:32;;;;;;;8.27;5.88;;;17.60;70.60;;;;;;4989131;28;20048;-70
2022/04/24 12:06:07;;;;;;;4.75;4.32;;;17.40;69.20;;;;;;4975022;28;20476;-71
2022/04/24 12:08:49;;;;;;;4.35;3.33;;;17.60;70.50;;;;;;4979751;28;20030;-70
2022/04/24 12:11:32;;;;;;;8.00;3.90;;;17.70;69.10;;;;;;4992091;28;20389;-71
2022/04/24 12:14:07;;;;;;;11.68;5.28;;;18.60;70.90;;;;;;4992168;28;20554;-70
2022/04/24 12:16:34;;;;;;;4.93;3.70;;;17.60;70.00;;;;;;4993259;28;20031;-71
2022/04/24 12:19:01;;;;;;;7.18;4.65;;;17.70;69.70;;;;;;4992178;28;20042;-70
2022/04/24 12:21:28;;;;;;;5.85;4.47;;;17.80;68.40;;;;;;4992823;28;20078;-70
2022/04/24 12:23:55;;;;;;;4.25;3.67;;;17.80;68.60;;;;;;4992571;28;20026;-70
2022/04/24 12:26:21;;;;;;;4.18;3.78;;;17.80;68.60;;;;;;4990697;28;20038;-70
2022/04/24 12:28:47;;;;;;;4.05;3.55;;;18.00;68.60;;;;;;4974067;28;20050;-70
2022/04/24 12:31:23;;;;;;;5.53;3.63;;;18.00;68.60;;;;;;4974953;28;20043;-71
2022/04/24 12:33:53;;;;;;;3.92;3.33;;;18.10;69.20;;;;;;4972809;28;20531;-71
2022/04/24 12:36:19;;;;;;;7.18;3.63;;;18.20;66.70;;;;;;4978459;28;20030;-71
2022/04/24 12:38:58;;;;;;;6.05;4.72;;;18.10;67.90;;;;;;4973033;28;20118;-71
2022/04/24 12:41:26;;;;;;;3.45;2.90;;;18.10;68.20;;;;;;4972294;28;20391;-70
2022/04/24 12:43:52;;;;;;;7.32;4.22;;;18.00;67.50;;;;;;4973712;28;20019;-70
2022/04/24 12:46:19;;;;;;;4.22;3.70;;;17.90;67.30;;;;;;4972996;28;20518;-70
2022/04/24 12:48:49;;;;;;;5.70;4.30;;;18.00;67.50;;;;;;4972920;28;20022;-71
2022/04/24 12:51:15;;;;;;;4.03;3.63;;;17.50;67.20;;;;;;4981372;28;21536;-71
2022/04/24 12:53:41;;;;;;;5.60;3.70;;;18.10;66.60;;;;;;4992647;28;20034;-71
2022/04/24 12:56:07;;;;;;;3.65;2.95;;;18.20;65.00;;;;;;4992069;28;20531;-71
2022/04/24 12:58:33;;;;;;;6.70;3.65;;;18.40;64.90;;;;;;4992564;28;20043;-70
2022/04/24 13:00:59;;;;;;;4.22;3.83;;;18.20;64.10;;;;;;4991209;28;20037;-71